Latest News: Website changes Read more...
 Looking for the classic swell model? Navbar → Wave Models → Classic Models

CABRILLO POINT NEARSHORE, CA - 158

GPS Time
Latitude
Degrees
Longitude
Degrees
Gap
 
Distance
NM
Speed
Knots
Direction
Degrees
Apr 19, 08:56 36.62624° -121.90691° 30 min 0.01 0.00
Apr 19, 08:26 36.62622° -121.90691° 30 min 0.01 0.00
Apr 19, 07:56 36.62622° -121.90691° 30 min 0.01 0.00
Apr 19, 07:26 36.62622° -121.90691° 30 min 0.01 0.01
24°
Apr 19, 06:56 36.62617° -121.90694° 30 min 0.01 0.00
180°
Apr 19, 06:26 36.62619° -121.90694° 30 min 0.01 0.01
230°
Apr 19, 05:56 36.62622° -121.90689° 30 min 0.01 0.00
Apr 19, 05:26 36.62622° -121.90689° 30 min 0.01 0.01
195°
Apr 19, 04:56 36.62626° -121.90688° 30 min 0.01 0.00
180°
Apr 19, 04:26 36.62629° -121.90688° 30 min 0.01 0.00
33°
Apr 19, 03:56 36.62627° -121.90689° 30 min 0.01 0.00
313°
Apr 19, 03:26 36.62626° -121.90688° 30 min 0.01 0.01
150°
Apr 19, 02:56 36.62635° -121.90694° 30 min 0.01 0.02
85°
Apr 19, 02:26 36.62634° -121.90710° 30 min 0.00 0.02
16°
Apr 19, 01:56 36.62621° -121.90715° 30 min 0.01 0.02
290°
Apr 19, 01:26 36.62616° -121.90700° 30 min 0.01 0.01
270°
Apr 19, 00:56 36.62616° -121.90694° 30 min 0.01 0.00
270°
Apr 19, 00:26 36.62616° -121.90691° 30 min 0.01 0.00
250°
Apr 18, 23:56 36.62617° -121.90688° 30 min 0.01 0.01
226°
Apr 18, 23:26 36.62623° -121.90681° 1 h 0.01 0.00
Apr 18, 22:26 36.62623° -121.90681° 1 h 0.01 0.00
Apr 18, 21:26 36.62617° -121.90681° 30 min 0.01 0.00
90°
Apr 18, 20:56 36.62617° -121.90685° 30 min 0.01 0.00
180°
Apr 18, 20:26 36.62619° -121.90685° 1 h 0.01 0.00
141°
Apr 18, 19:26 36.62621° -121.90688° 30 min 0.01 0.00
224°
Apr 18, 18:56 36.62623° -121.90685° 30 min 0.01 0.00
44°
Apr 18, 18:26 36.62621° -121.90688° 30 min 0.01 0.01
43°
Apr 18, 17:56 36.62616° -121.90694° 30 min 0.01 0.00
73°
Apr 18, 17:26 36.62614° -121.90698° 30 min 0.01 0.00
70°
Apr 18, 16:56 36.62613° -121.90702° 30 min 0.01 0.00
238°
Apr 18, 16:26 36.62614° -121.90700° 1 h 0.01 0.00
229°
Apr 18, 15:26 36.62619° -121.90694° 30 min 0.01 0.00
Apr 18, 14:56 36.62619° -121.90694° 1 h, 30 min 0.01 0.00
49°
Apr 18, 13:26 36.62614° -121.90700° 1 h 0.01 0.00
Apr 18, 12:26 36.62613° -121.90700° 1 h 0.01 0.00
180°
Apr 18, 11:26 36.62614° -121.90700° 30 min 0.01 0.01
65°
Apr 18, 10:56 36.62611° -121.90709° 30 min 0.01 0.01
150°
Apr 18, 10:26 36.62616° -121.90713° 1 h 0.01 0.01
151°
Apr 18, 09:26 36.62626° -121.90720° 30 min 0.01 0.00
20°
Apr 18, 08:56 36.62623° -121.90721° 30 min 0.01 0.02
278°
Apr 18, 08:26 36.62621° -121.90704° 30 min 0.01 0.01
270°
Apr 18, 07:56 36.62621° -121.90689° 1 h 0.01 0.00
Apr 18, 06:56 36.62616° -121.90689° 30 min 0.01 0.00
302°
Apr 18, 06:26 36.62616° -121.90688° 30 min 0.01 0.00
180°
Apr 18, 05:56 36.62616° -121.90688° 30 min 0.01 0.00
270°
Apr 18, 05:26 36.62616° -121.90685° 30 min 0.01 0.00
Apr 18, 04:56 36.62616° -121.90685° 30 min 0.01 0.00
180°
Apr 18, 04:26 36.62617° -121.90685° 30 min 0.01 0.00
180°
Apr 18, 03:56 36.62621° -121.90685° 30 min 0.01 0.00
Apr 18, 03:26 36.62620° -121.90685° 1 h 0.01 0.01
57°
Apr 18, 02:26 36.62612° -121.90700° 30 min 0.01 0.00
90°
Apr 18, 01:56 36.62612° -121.90704° 1 h 0.01 0.00
302°
Apr 18, 00:56 36.62611° -121.90702° 1 h 0.01 0.00
270°
Apr 17, 23:56 36.62611° -121.90700° 30 min 0.01 0.02
221°
Apr 17, 23:26 36.62621° -121.90689° 1 h 0.01 0.00
264°
Apr 17, 22:26 36.62622° -121.90681° 1 h, 30 min 0.01 0.00
41°
Apr 17, 20:56 36.62617° -121.90685° 30 min 0.01 0.00
122°
Apr 17, 20:26 36.62619° -121.90688° 30 min 0.01 0.01
58°
Apr 17, 19:56 36.62616° -121.90694° 30 min 0.01 0.02
110°
Apr 17, 19:26 36.62622° -121.90715° 30 min 0.01 0.01
180°
Apr 17, 18:56 36.62632° -121.90715° 1 h, 30 min 0.00 0.00
117°
Apr 17, 17:26 36.62634° -121.90720° 30 min 0.01 0.00
270°
Apr 17, 16:56 36.62634° -121.90717° 30 min 0.01 0.00
152°
Apr 17, 16:26 36.62637° -121.90720° 30 min 0.01 0.00
110°
Apr 17, 15:56 36.62638° -121.90723° 1 h 0.01 0.01
12°
Apr 17, 14:56 36.62629° -121.90726° 30 min 0.01 0.00
329°
Apr 17, 14:26 36.62626° -121.90723° 1 h 0.01 0.00
210°
Apr 17, 13:26 36.62632° -121.90720° 30 min 0.01 0.01
Apr 17, 12:56 36.62625° -121.90720° 30 min 0.01 0.02
310°
Apr 17, 12:26 36.62616° -121.90707° 30 min 0.01 0.01
264°
Apr 17, 11:56 36.62617° -121.90694° 30 min 0.01 0.00
Apr 17, 11:26 36.62617° -121.90694° 30 min 0.01 0.01
310°
Apr 17, 10:56 36.62614° -121.90689° 30 min 0.01 0.00
90°
Apr 17, 10:26 36.62614° -121.90691° 30 min 0.01 0.01
225°
Apr 17, 09:56 36.62617° -121.90688° 30 min 0.01 0.00
208°
Apr 17, 09:26 36.62621° -121.90685° 1 h 0.01 0.00
Apr 17, 08:26 36.62620° -121.90685° 30 min 0.01 0.00
Apr 17, 07:56 36.62617° -121.90685° 30 min 0.01 0.00
Apr 17, 07:26 36.62617° -121.90685° 1 h, 30 min 0.01 0.00
58°
Apr 17, 05:56 36.62611° -121.90698° 30 min 0.01 0.00
90°
Apr 17, 05:26 36.62611° -121.90700° 30 min 0.01 0.00
270°
Apr 17, 04:56 36.62611° -121.90696° 30 min 0.01 0.00
90°
Apr 17, 04:26 36.62611° -121.90700° 30 min 0.01 0.02
110°
Apr 17, 03:56 36.62616° -121.90715° 30 min 0.01 0.01
153°
Apr 17, 03:26 36.62623° -121.90720° 30 min 0.01 0.00
152°
Apr 17, 02:56 36.62625° -121.90721° 30 min 0.01 0.00
313°
Apr 17, 02:26 36.62624° -121.90720° 30 min 0.01 0.00
Apr 17, 01:56 36.62624° -121.90720° 1 h 0.01 0.01
295°
Apr 17, 00:56 36.62614° -121.90694° 1 h 0.01 0.00
246°
Apr 16, 23:56 36.62617° -121.90685° 1 h 0.01 0.00
Apr 16, 22:56 36.62616° -121.90685° 30 min 0.01 0.00
Apr 16, 22:26 36.62616° -121.90685° 30 min 0.01 0.00
90°
Apr 16, 21:56 36.62616° -121.90689° 30 min 0.01 0.00
302°
Apr 16, 21:26 36.62616° -121.90688° 30 min 0.01 0.00
180°
Apr 16, 20:56 36.62616° -121.90688° 30 min 0.01 0.00
293°
Apr 16, 20:26 36.62616° -121.90685° 30 min 0.01 0.00
180°
Apr 16, 19:56 36.62617° -121.90685° 30 min 0.01 0.00
180°
Apr 16, 19:26 36.62619° -121.90685° 30 min 0.01 0.00
180°
Apr 16, 18:56 36.62620° -121.90685° 30 min 0.01 0.00
Apr 16, 18:26 36.62616° -121.90685° 30 min 0.01 0.01
180°
Apr 16, 17:56 36.62624° -121.90685° 30 min 0.01 0.01
66°
Apr 16, 17:26 36.62621° -121.90694° 30 min 0.01 0.01
71°
Apr 16, 16:56 36.62619° -121.90702° 30 min 0.01 0.00
211°
Apr 16, 16:26 36.62622° -121.90700° 30 min 0.01 0.02
146°
Apr 16, 15:56 36.62633° -121.90709° 30 min 0.00 0.01
90°
Apr 16, 15:26 36.62633° -121.90715° 30 min 0.01 0.01
65°
Apr 16, 14:56 36.62630° -121.90721° 30 min 0.01 0.00
270°
Apr 16, 14:26 36.62630° -121.90720° 30 min 0.01 0.00
133°
Apr 16, 13:56 36.62632° -121.90721° 30 min 0.01 0.00
202°
Apr 16, 13:26 36.62635° -121.90720° 30 min 0.01 0.00
Apr 16, 12:56 36.62634° -121.90720° 30 min 0.01 0.00
180°
Apr 16, 12:26 36.62635° -121.90720° 30 min 0.01 0.01
164°
Apr 16, 11:56 36.62639° -121.90721° 30 min 0.01 0.00
302°
Apr 16, 11:26 36.62638° -121.90720° 30 min 0.01 0.00
47°
Apr 16, 10:56 36.62637° -121.90721° 30 min 0.01 0.00
Apr 16, 10:26 36.62636° -121.90721° 30 min 0.01 0.00
313°
Apr 16, 09:56 36.62635° -121.90720° 30 min 0.01 0.00